Alyeska Resort
Hourly Weather - Base Weather Site
ALY_BASE_HR 1/20/2017
CLICK TO VIEW GRAPH!!

        DATE  TIME   Air  BATT   H2o   H2o   Rel
                    Temp  Volt  Inch Since  Hum%
                      F   AVG   1HR  0600   AVG

   1/20/2017 10:00    11 14.37  0.00  0.00    87
   1/20/2017 09:00     9 14.40  0.00  0.00    88
   1/20/2017 08:00     8 14.41  0.00  0.00    88
   1/20/2017 07:00     5 14.44  0.00  0.00    86
   1/20/2017 06:00     4 14.46  0.00  0.00    86
   1/20/2017 05:00     2 14.48  0.00  0.00    87
   1/20/2017 04:00     0 14.48  0.00  0.00    85
   1/20/2017 03:00     1 14.48  0.00  0.00    85
   1/20/2017 02:00     1 14.49  0.00  0.00    85
   1/20/2017 01:00     1 14.50  0.00  0.00    85
   1/19/2017 24:00     0 14.50  0.00  0.00    84
   1/19/2017 23:00    -2 14.52  0.00  0.00    85
   1/19/2017 22:00    -2 14.53  0.00  0.00    84
   1/19/2017 21:00    -2 14.53  0.00  0.00    83
   1/19/2017 20:00    -3 14.53  0.00  0.00    84
   1/19/2017 19:00    -3 14.52  0.00  0.00    82
   1/19/2017 18:00    -3 14.52  0.00  0.00    82
   1/19/2017 17:00    -1 14.51  0.00  0.00    82
   1/19/2017 16:00    -1 14.50  0.00  0.00    79
   1/19/2017 15:00    -1 14.52  0.00  0.00    77
   1/19/2017 14:00    -2 14.52  0.00  0.00    80
   1/19/2017 13:00    -3 14.53  0.00  0.00    80
   1/19/2017 12:00    -2 14.54  0.00  0.00    81
   1/19/2017 11:00    -4 14.55  0.00  0.00    82


CLICK TO VIEW GRAPH!!